Time;durP1;ratioP1;P1;durP2;ratioP2;P2;SDS_P1;SDS_P2;PMS_P1;PMS_P2;Temp;Humidity;BMP_temperature;BMP_pressure;BME280_temperature;BME280_humidity;BME280_pressure;Samples;Min_cycle;Max_cycle;Signal;HPM_P1;HPM_P2
2023/03/04 00:01:58;;;;;;;12.88;2.00;;;7.10;68.80;;;;;;5080707;28;20123;-74
2023/03/04 00:04:24;;;;;;;14.02;2.42;;;7.10;68.60;;;;;;5056276;28;20543;-75
2023/03/04 00:06:50;;;;;;;13.48;2.55;;;7.10;68.40;;;;;;5072750;28;20040;-75
2023/03/04 00:09:15;;;;;;;9.95;2.22;;;7.10;68.20;;;;;;5091206;28;20048;-75
2023/03/04 00:11:41;;;;;;;8.02;1.80;;;7.10;68.30;;;;;;5076871;28;20050;-74
2023/03/04 00:14:07;;;;;;;8.98;1.88;;;7.10;68.90;;;;;;5077542;28;20047;-74
2023/03/04 00:16:32;;;;;;;16.67;2.25;;;7.00;68.40;;;;;;5077243;28;20526;-74
2023/03/04 00:18:58;;;;;;;13.52;2.60;;;7.10;68.50;;;;;;5079008;28;20040;-74
2023/03/04 00:21:24;;;;;;;13.55;2.30;;;7.10;68.60;;;;;;5093328;28;20039;-75
2023/03/04 00:23:50;;;;;;;10.27;1.80;;;7.00;68.70;;;;;;5091970;28;20075;-74
2023/03/04 00:26:16;;;;;;;13.77;2.53;;;7.10;68.90;;;;;;5093842;28;20034;-74
2023/03/04 00:28:42;;;;;;;12.52;2.28;;;7.10;69.00;;;;;;5077050;28;20384;-74
2023/03/04 00:31:08;;;;;;;6.50;1.60;;;7.10;69.00;;;;;;5093792;28;20044;-75
2023/03/04 00:33:34;;;;;;;9.25;2.30;;;7.10;69.00;;;;;;5081701;28;20039;-75
2023/03/04 00:36:01;;;;;;;10.95;2.08;;;7.10;69.10;;;;;;5096864;28;20050;-74
2023/03/04 00:38:27;;;;;;;14.75;2.47;;;7.10;69.20;;;;;;5096878;28;20122;-74
2023/03/04 00:40:53;;;;;;;12.32;2.28;;;7.00;69.10;;;;;;5065997;28;20036;-74
2023/03/04 00:43:19;;;;;;;12.90;2.35;;;7.10;69.10;;;;;;5090052;28;20157;-74
2023/03/04 00:45:44;;;;;;;14.18;2.50;;;7.10;69.00;;;;;;5073093;28;20044;-74
2023/03/04 00:48:10;;;;;;;14.00;2.33;;;7.10;68.90;;;;;;5072947;28;20102;-73
2023/03/04 00:50:36;;;;;;;10.40;2.05;;;7.10;68.90;;;;;;5073033;28;20052;-74
2023/03/04 00:53:02;;;;;;;9.10;2.00;;;7.10;69.00;;;;;;5076131;28;20131;-73
2023/03/04 00:55:28;;;;;;;9.90;2.00;;;7.10;69.10;;;;;;5095851;28;20044;-73
2023/03/04 00:57:54;;;;;;;14.00;2.80;;;7.10;69.20;;;;;;5086202;28;20047;-73
2023/03/04 01:00:20;;;;;;;9.90;1.83;;;7.10;69.40;;;;;;5072629;28;20052;-73
2023/03/04 01:02:45;;;;;;;14.57;2.95;;;7.10;69.30;;;;;;5072747;28;20048;-73
2023/03/04 01:05:11;;;;;;;10.95;2.10;;;7.00;69.30;;;;;;5089869;28;20108;-74
2023/03/04 01:07:37;;;;;;;10.70;1.90;;;7.00;69.30;;;;;;5089800;28;20048;-74
2023/03/04 01:10:04;;;;;;;13.30;2.10;;;7.10;69.30;;;;;;5078646;28;20128;-74
2023/03/04 01:12:30;;;;;;;13.15;2.22;;;7.00;69.20;;;;;;5093034;28;20165;-74
2023/03/04 01:14:56;;;;;;;11.52;1.65;;;7.10;69.20;;;;;;5086755;28;20496;-74
2023/03/04 01:17:21;;;;;;;11.07;2.13;;;7.00;69.10;;;;;;5093136;28;20036;-73
2023/03/04 01:19:47;;;;;;;12.93;2.22;;;7.00;69.10;;;;;;5092254;28;20079;-73
2023/03/04 01:22:14;;;;;;;16.52;2.78;;;7.00;69.00;;;;;;5059091;28;20173;-73
2023/03/04 01:24:40;;;;;;;10.43;1.95;;;7.10;69.10;;;;;;5092801;28;20039;-74
2023/03/04 01:27:05;;;;;;;16.48;2.38;;;7.00;68.90;;;;;;5092819;28;20036;-73
2023/03/04 01:29:31;;;;;;;8.65;2.30;;;7.00;68.90;;;;;;5092665;28;20039;-73
2023/03/04 01:31:57;;;;;;;12.98;4.32;;;7.00;68.90;;;;;;5092196;28;20123;-74
2023/03/04 01:34:22;;;;;;;14.00;3.05;;;7.00;68.80;;;;;;5075611;28;20028;-74
2023/03/04 01:36:48;;;;;;;9.60;2.72;;;7.00;68.80;;;;;;5092448;28;20097;-74
2023/03/04 01:39:14;;;;;;;13.68;3.22;;;7.00;68.80;;;;;;5075565;28;20036;-74
2023/03/04 01:41:40;;;;;;;13.48;2.55;;;7.00;68.80;;;;;;5098670;28;20032;-74
2023/03/04 01:44:05;;;;;;;22.05;6.70;;;7.00;68.80;;;;;;5058205;28;20038;-74
2023/03/04 01:46:31;;;;;;;21.83;7.07;;;7.00;68.80;;;;;;5095705;28;20059;-74
2023/03/04 01:48:58;;;;;;;15.38;4.50;;;7.00;68.80;;;;;;5089530;28;20476;-74
2023/03/04 01:51:23;;;;;;;18.00;6.25;;;7.00;69.00;;;;;;5074713;28;20075;-74
2023/03/04 01:53:52;;;;;;;22.70;8.70;;;7.00;69.00;;;;;;5074161;28;20471;-74
2023/03/04 01:56:34;;;;;;;12.70;5.75;;;7.00;69.00;;;;;;5075443;28;20123;-74
2023/03/04 01:59:10;;;;;;;18.67;4.75;;;7.00;69.10;;;;;;5092018;28;20043;-73
2023/03/04 02:01:37;;;;;;;17.15;4.78;;;7.00;69.30;;;;;;5075167;28;20571;-74
2023/03/04 02:04:03;;;;;;;14.20;4.28;;;6.90;69.20;;;;;;5078649;28;20077;-74
2023/03/04 02:06:29;;;;;;;13.23;4.40;;;7.00;69.30;;;;;;5076548;28;20040;-74
2023/03/04 02:08:55;;;;;;;9.25;3.25;;;6.90;69.20;;;;;;5091281;28;20119;-74
2023/03/04 02:11:21;;;;;;;14.90;3.58;;;6.90;69.30;;;;;;5091793;28;20123;-74
2023/03/04 02:13:46;;;;;;;18.15;5.22;;;7.00;69.50;;;;;;5076383;28;20090;-74
2023/03/04 02:16:12;;;;;;;17.20;5.22;;;6.90;69.50;;;;;;5095613;28;20039;-74
2023/03/04 02:18:38;;;;;;;13.77;4.50;;;6.90;69.50;;;;;;5077172;28;20040;-75
2023/03/04 02:21:09;;;;;;;12.23;3.97;;;6.90;69.50;;;;;;5074697;28;20040;-74
2023/03/04 02:23:53;;;;;;;12.48;4.13;;;6.90;69.50;;;;;;5092034;28;20500;-74
2023/03/04 02:26:21;;;;;;;14.07;3.75;;;6.90;69.50;;;;;;5112035;28;20042;-74
2023/03/04 02:28:49;;;;;;;10.65;2.08;;;6.90;69.30;;;;;;5082632;28;20077;-74
2023/03/04 02:31:31;;;;;;;12.45;2.80;;;6.90;69.10;;;;;;5074886;28;20505;-74
2023/03/04 02:34:03;;;;;;;10.15;2.40;;;6.90;68.90;;;;;;5075167;28;20550;-74
2023/03/04 02:36:29;;;;;;;14.88;3.22;;;6.90;69.00;;;;;;5091653;28;20040;-74
2023/03/04 02:39:00;;;;;;;13.27;2.47;;;6.90;69.00;;;;;;5074846;28;20054;-74
2023/03/04 02:41:29;;;;;;;10.90;2.80;;;6.90;69.10;;;;;;5098647;28;20494;-74
2023/03/04 02:43:55;;;;;;;11.98;3.38;;;6.90;69.10;;;;;;5093158;28;20478;-73
2023/03/04 02:46:21;;;;;;;11.48;3.05;;;6.80;69.00;;;;;;5091524;28;20492;-73
2023/03/04 02:48:49;;;;;;;14.90;3.35;;;6.90;69.00;;;;;;5074328;28;20040;-73
2023/03/04 02:51:15;;;;;;;11.45;3.05;;;6.90;69.10;;;;;;5091540;28;20040;-73
2023/03/04 02:53:40;;;;;;;13.10;3.35;;;6.90;69.10;;;;;;5091537;28;20046;-73
2023/03/04 02:56:06;;;;;;;11.38;2.45;;;6.90;69.10;;;;;;5091048;28;20040;-73
2023/03/04 02:58:33;;;;;;;11.82;2.65;;;6.80;69.10;;;;;;5091305;28;20036;-73
2023/03/04 03:00:58;;;;;;;13.88;4.10;;;6.80;69.10;;;;;;5074007;28;20559;-73
2023/03/04 03:03:25;;;;;;;12.13;2.58;;;6.90;69.20;;;;;;5091646;28;20076;-73
2023/03/04 03:05:52;;;;;;;11.48;3.55;;;6.80;69.10;;;;;;5077338;28;20115;-74
2023/03/04 03:08:18;;;;;;;12.00;3.00;;;6.80;69.10;;;;;;5058498;28;20112;-73
2023/03/04 03:10:43;;;;;;;10.90;2.75;;;6.80;69.10;;;;;;5058443;28;20127;-73
2023/03/04 03:13:09;;;;;;;10.93;3.05;;;6.80;69.10;;;;;;5077349;28;20557;-73
2023/03/04 03:15:35;;;;;;;14.65;3.78;;;6.90;69.10;;;;;;5093878;28;20138;-73
2023/03/04 03:18:00;;;;;;;10.35;3.72;;;6.80;69.10;;;;;;5078307;28;20105;-73
2023/03/04 03:20:26;;;;;;;17.60;4.20;;;6.80;69.20;;;;;;5077616;28;20040;-74
2023/03/04 03:22:52;;;;;;;14.40;3.17;;;6.80;69.30;;;;;;5078393;28;20131;-74
2023/03/04 03:25:18;;;;;;;16.52;3.97;;;6.80;69.80;;;;;;5078073;28;20491;-73
2023/03/04 03:27:43;;;;;;;11.48;3.28;;;6.80;69.40;;;;;;5094990;28;20131;-74
2023/03/04 03:30:12;;;;;;;17.70;5.00;;;6.80;69.40;;;;;;5083556;28;20040;-74
2023/03/04 03:32:37;;;;;;;17.50;3.85;;;6.80;69.40;;;;;;5093499;28;20044;-74
2023/03/04 03:35:04;;;;;;;15.27;5.40;;;6.90;69.60;;;;;;5078278;28;20043;-74
2023/03/04 03:37:30;;;;;;;16.58;5.70;;;6.80;69.50;;;;;;5077948;28;20032;-74
2023/03/04 03:39:55;;;;;;;12.55;3.65;;;6.90;69.70;;;;;;5061143;28;20364;-75
2023/03/04 03:42:21;;;;;;;12.45;4.03;;;6.80;69.80;;;;;;5077221;28;20447;-82
2023/03/04 03:44:49;;;;;;;14.82;4.90;;;6.90;70.00;;;;;;5053956;28;20036;-81
2023/03/04 03:47:14;;;;;;;14.82;3.95;;;6.90;70.10;;;;;;5078151;28;20040;-82
2023/03/04 03:49:40;;;;;;;10.48;2.75;;;6.90;70.20;;;;;;5077602;28;20453;-74
2023/03/04 03:52:07;;;;;;;11.48;2.83;;;6.90;70.30;;;;;;5060439;28;20124;-74
2023/03/04 03:54:33;;;;;;;12.07;3.33;;;6.90;70.40;;;;;;5094600;28;20036;-74
2023/03/04 03:56:58;;;;;;;9.63;3.40;;;6.90;70.50;;;;;;5128417;27;20044;-74
2023/03/04 03:59:24;;;;;;;13.02;2.78;;;6.90;70.60;;;;;;5077659;28;20532;-74
2023/03/04 04:01:50;;;;;;;8.60;2.55;;;6.90;70.70;;;;;;5094482;27;20484;-74
2023/03/04 04:04:15;;;;;;;15.02;3.25;;;6.90;70.70;;;;;;5084763;28;20044;-82
2023/03/04 04:06:41;;;;;;;12.68;2.30;;;6.90;70.90;;;;;;5077644;28;20106;-82
2023/03/04 04:09:07;;;;;;;9.07;2.08;;;6.80;70.90;;;;;;5041079;28;20062;-82
2023/03/04 04:11:32;;;;;;;13.40;1.95;;;6.80;71.00;;;;;;5091165;28;20072;-82
2023/03/04 04:13:58;;;;;;;10.95;2.40;;;6.90;71.10;;;;;;5074682;28;20045;-82
2023/03/04 04:16:24;;;;;;;8.90;2.20;;;6.90;71.20;;;;;;5073229;28;20040;-82
2023/03/04 04:18:49;;;;;;;6.55;1.65;;;6.90;71.30;;;;;;5057204;28;20037;-74
2023/03/04 04:21:15;;;;;;;7.38;1.48;;;6.90;71.40;;;;;;5093656;28;20078;-75
2023/03/04 04:23:41;;;;;;;12.13;3.30;;;6.80;71.40;;;;;;5060608;28;20078;-74
2023/03/04 04:26:06;;;;;;;12.25;3.65;;;6.90;71.90;;;;;;5060430;28;20039;-74
2023/03/04 04:28:32;;;;;;;12.13;2.75;;;6.90;71.50;;;;;;5075238;28;20036;-74
2023/03/04 04:30:58;;;;;;;8.23;1.85;;;6.80;71.50;;;;;;5083315;28;20043;-75
2023/03/04 04:33:24;;;;;;;11.00;3.05;;;6.80;71.50;;;;;;5080285;28;20088;-82
2023/03/04 04:35:49;;;;;;;12.45;3.03;;;6.80;71.60;;;;;;5077027;28;20047;-74
2023/03/04 04:38:15;;;;;;;10.90;2.75;;;6.80;71.60;;;;;;5059973;28;20036;-74
2023/03/04 04:40:41;;;;;;;13.15;4.50;;;6.80;71.70;;;;;;5094636;28;20445;-73
2023/03/04 04:43:07;;;;;;;10.05;2.70;;;6.80;71.70;;;;;;5060217;28;20036;-80
2023/03/04 04:45:34;;;;;;;7.72;2.25;;;6.80;71.80;;;;;;5094157;28;20036;-74
2023/03/04 04:47:59;;;;;;;15.13;3.60;;;6.80;71.80;;;;;;5076604;28;20036;-74
2023/03/04 04:50:26;;;;;;;12.50;2.70;;;6.80;71.90;;;;;;5093363;28;20115;-74
2023/03/04 04:52:52;;;;;;;9.65;2.72;;;6.80;72.00;;;;;;5093449;28;20044;-81
2023/03/04 04:55:17;;;;;;;7.72;2.17;;;6.80;72.00;;;;;;5093905;28;20036;-82
2023/03/04 04:57:43;;;;;;;7.07;1.52;;;6.80;72.00;;;;;;5093252;28;20384;-74
2023/03/04 05:00:10;;;;;;;9.38;2.40;;;6.80;72.20;;;;;;5056052;28;20135;-74
2023/03/04 05:02:36;;;;;;;9.85;2.30;;;6.80;72.30;;;;;;5093256;28;20040;-73
2023/03/04 05:05:06;;;;;;;7.20;2.28;;;6.80;72.30;;;;;;5076183;28;20074;-73
2023/03/04 05:07:33;;;;;;;8.85;1.70;;;6.80;72.50;;;;;;5075469;28;20043;-73
2023/03/04 05:09:58;;;;;;;8.60;1.92;;;6.80;72.60;;;;;;5092955;28;20123;-73
2023/03/04 05:12:24;;;;;;;9.57;1.73;;;6.80;72.60;;;;;;5084956;28;20165;-73
2023/03/04 05:14:50;;;;;;;10.52;2.22;;;6.80;72.60;;;;;;5079178;28;20118;-74
2023/03/04 05:17:16;;;;;;;9.88;2.13;;;6.80;72.80;;;;;;5081002;28;20076;-73
2023/03/04 05:19:41;;;;;;;10.85;2.60;;;6.80;72.90;;;;;;5059339;28;20044;-74
2023/03/04 05:22:07;;;;;;;9.95;2.47;;;6.80;73.00;;;;;;5066266;28;20040;-80
2023/03/04 05:24:33;;;;;;;13.88;2.35;;;6.80;73.20;;;;;;5113625;28;20116;-81
2023/03/04 05:27:00;;;;;;;19.05;3.22;;;6.80;73.20;;;;;;5077319;28;20036;-81
2023/03/04 05:29:26;;;;;;;8.63;2.45;;;6.80;73.40;;;;;;5076091;28;20096;-81
2023/03/04 05:31:52;;;;;;;11.10;2.13;;;6.80;73.40;;;;;;5060925;28;20114;-73
2023/03/04 05:34:18;;;;;;;9.15;2.60;;;6.80;73.50;;;;;;5075604;28;20074;-74
2023/03/04 05:36:43;;;;;;;6.18;1.60;;;6.80;73.60;;;;;;5092410;28;20047;-74
2023/03/04 05:39:09;;;;;;;6.03;1.10;;;6.80;73.80;;;;;;5075866;28;20032;-73
2023/03/04 05:41:35;;;;;;;7.78;2.00;;;6.80;73.90;;;;;;5068528;28;20028;-74
2023/03/04 05:44:00;;;;;;;4.55;1.77;;;6.70;74.10;;;;;;5107712;28;20036;-74
2023/03/04 05:46:26;;;;;;;8.48;1.80;;;6.80;74.40;;;;;;5075505;28;20032;-74
2023/03/04 05:48:53;;;;;;;5.63;1.58;;;6.70;74.60;;;;;;5092501;28;20036;-74
2023/03/04 05:51:19;;;;;;;8.70;1.60;;;6.70;74.80;;;;;;5093445;28;20047;-73
2023/03/04 05:53:45;;;;;;;6.72;1.33;;;6.70;75.10;;;;;;5091807;28;20051;-73
2023/03/04 05:56:14;;;;;;;6.93;1.58;;;6.80;75.30;;;;;;5075348;28;20036;-73
2023/03/04 05:58:40;;;;;;;9.63;1.25;;;6.70;75.50;;;;;;5091484;28;20044;-73
2023/03/04 06:01:07;;;;;;;6.95;1.38;;;6.80;75.70;;;;;;5092485;28;20052;-73
2023/03/04 06:03:32;;;;;;;3.22;0.88;;;6.70;76.00;;;;;;5074872;28;20032;-73
2023/03/04 06:05:58;;;;;;;5.22;1.23;;;6.70;76.10;;;;;;5092072;28;20046;-73
2023/03/04 06:08:25;;;;;;;5.40;1.63;;;6.70;76.20;;;;;;5075068;28;20028;-73
2023/03/04 06:10:53;;;;;;;7.88;1.27;;;6.70;76.30;;;;;;5075096;28;20043;-73
2023/03/04 06:13:19;;;;;;;8.10;1.30;;;6.70;76.50;;;;;;5087162;28;20124;-73
2023/03/04 06:15:44;;;;;;;7.32;1.50;;;6.70;76.50;;;;;;5058418;28;20518;-73
2023/03/04 06:18:10;;;;;;;6.22;1.20;;;6.60;76.60;;;;;;5075591;28;20063;-73
2023/03/04 06:20:36;;;;;;;2.58;0.80;;;6.60;76.70;;;;;;5108313;28;20066;-73
2023/03/04 06:23:03;;;;;;;6.32;1.70;;;6.60;76.80;;;;;;5090965;28;20035;-73
2023/03/04 06:25:29;;;;;;;5.30;1.10;;;6.60;76.90;;;;;;5074063;28;20107;-74
2023/03/04 06:27:55;;;;;;;6.72;1.40;;;6.60;77.10;;;;;;5057984;28;20120;-74
2023/03/04 06:30:22;;;;;;;5.18;1.33;;;6.60;77.30;;;;;;5074428;28;20096;-73
2023/03/04 06:32:48;;;;;;;5.38;1.25;;;6.60;77.60;;;;;;5054859;28;20040;-73
2023/03/04 06:35:15;;;;;;;4.93;1.50;;;6.60;77.60;;;;;;5055022;28;20044;-73
2023/03/04 06:37:41;;;;;;;7.22;1.15;;;6.60;77.80;;;;;;5055185;28;20400;-73
2023/03/04 06:40:08;;;;;;;6.10;1.38;;;6.60;78.00;;;;;;5075076;28;20442;-73
2023/03/04 06:42:35;;;;;;;3.90;1.42;;;6.60;78.10;;;;;;5078873;28;20092;-74
2023/03/04 06:45:02;;;;;;;2.85;1.10;;;6.60;78.30;;;;;;5078816;28;20036;-73
2023/03/04 06:47:28;;;;;;;7.38;1.42;;;6.60;78.40;;;;;;5095680;28;20036;-73
2023/03/04 06:49:53;;;;;;;6.25;1.25;;;6.60;78.60;;;;;;5095955;28;20100;-74
2023/03/04 06:52:19;;;;;;;6.80;1.20;;;6.60;78.70;;;;;;5055032;28;20402;-74
2023/03/04 06:54:45;;;;;;;7.40;1.30;;;6.60;78.80;;;;;;5116132;28;20062;-74
2023/03/04 06:57:12;;;;;;;11.27;2.42;;;6.60;79.00;;;;;;5081711;28;20417;-73
2023/03/04 06:59:38;;;;;;;7.00;1.38;;;6.60;79.10;;;;;;5078463;28;20032;-74
2023/03/04 07:02:04;;;;;;;7.18;1.20;;;6.60;79.30;;;;;;5077993;28;20063;-74
2023/03/04 07:04:30;;;;;;;7.95;1.95;;;6.60;79.50;;;;;;5095212;28;20039;-73
2023/03/04 07:06:56;;;;;;;4.57;1.73;;;6.60;79.70;;;;;;5078525;28;20040;-73
2023/03/04 07:09:22;;;;;;;7.60;1.92;;;6.50;79.80;;;;;;5078607;28;20572;-73
2023/03/04 07:11:48;;;;;;;4.63;1.13;;;6.60;80.10;;;;;;5094271;28;20040;-73
2023/03/04 07:14:14;;;;;;;6.93;1.23;;;6.60;80.10;;;;;;5077964;28;20410;-74
2023/03/04 07:16:40;;;;;;;6.05;1.45;;;6.60;80.30;;;;;;5097148;28;20040;-73
2023/03/04 07:19:05;;;;;;;2.60;0.90;;;6.60;80.40;;;;;;5095157;28;20040;-73
2023/03/04 07:21:31;;;;;;;5.38;1.17;;;6.60;80.60;;;;;;5098336;28;20100;-73
2023/03/04 07:23:57;;;;;;;6.68;1.38;;;6.70;80.70;;;;;;5085458;28;20047;-73
2023/03/04 07:26:23;;;;;;;7.35;1.40;;;6.70;80.90;;;;;;5094876;28;20071;-74
2023/03/04 07:28:51;;;;;;;9.13;1.52;;;6.70;81.00;;;;;;5077946;28;20092;-73
2023/03/04 07:31:28;;;;;;;6.22;1.88;;;6.70;81.10;;;;;;5094734;28;20043;-73
2023/03/04 07:34:01;;;;;;;6.03;1.50;;;6.70;81.30;;;;;;5094785;28;20454;-74
2023/03/04 07:36:27;;;;;;;4.80;1.00;;;6.70;81.40;;;;;;5094887;28;20052;-73
2023/03/04 07:38:56;;;;;;;6.32;1.80;;;6.80;81.60;;;;;;5078389;28;20066;-73
2023/03/04 07:41:23;;;;;;;5.10;1.50;;;6.80;81.60;;;;;;5083102;28;20042;-71
2023/03/04 07:43:50;;;;;;;4.97;1.00;;;6.80;81.80;;;;;;5115137;28;20038;-73
2023/03/04 07:46:16;;;;;;;4.63;1.13;;;6.80;81.90;;;;;;5094675;28;20032;-74
2023/03/04 07:48:42;;;;;;;6.30;1.50;;;6.90;82.20;;;;;;5077262;28;20036;-74
2023/03/04 07:51:17;;;;;;;4.43;1.20;;;6.90;82.10;;;;;;5063788;28;20130;-76
2023/03/04 07:53:46;;;;;;;;;;;6.90;82.20;;;;;;5115299;28;20040;-74
2023/03/04 07:56:17;;;;;;;5.28;1.30;;;6.90;81.90;;;;;;5115209;28;20403;-74
2023/03/04 07:58:43;;;;;;;7.40;1.30;;;6.90;82.00;;;;;;5113540;28;20199;-74
2023/03/04 08:01:14;;;;;;;3.78;1.42;;;7.00;82.30;;;;;;5094278;28;20162;-74
2023/03/04 08:03:40;;;;;;;3.47;1.15;;;7.00;82.40;;;;;;5077150;28;20040;-74
2023/03/04 08:06:12;;;;;;;8.55;1.63;;;7.00;82.40;;;;;;5077269;28;20387;-75
2023/03/04 08:08:37;;;;;;;5.18;1.58;;;7.00;82.70;;;;;;5077147;28;20040;-74
2023/03/04 08:11:05;;;;;;;11.57;3.13;;;7.00;82.70;;;;;;5078108;28;20037;-74
2023/03/04 08:13:31;;;;;;;7.93;3.03;;;7.00;82.80;;;;;;5077411;28;20043;-74
2023/03/04 08:15:57;;;;;;;8.55;2.00;;;7.00;82.90;;;;;;5077291;28;20564;-74
2023/03/04 08:18:23;;;;;;;5.55;1.70;;;7.00;83.10;;;;;;5057218;28;20377;-74
2023/03/04 08:20:48;;;;;;;7.05;1.90;;;7.10;83.20;;;;;;5092472;28;20044;-74
2023/03/04 08:23:14;;;;;;;5.60;1.45;;;7.00;83.30;;;;;;5077369;28;20051;-74
2023/03/04 08:25:41;;;;;;;5.18;1.48;;;7.10;83.50;;;;;;5092452;28;20126;-74
2023/03/04 08:28:08;;;;;;;7.05;1.70;;;7.10;83.70;;;;;;5093746;28;20079;-74
2023/03/04 08:30:34;;;;;;;6.57;1.52;;;7.10;84.00;;;;;;5077217;28;20104;-74
2023/03/04 08:33:01;;;;;;;7.95;2.08;;;7.20;84.30;;;;;;5106386;28;20040;-74
2023/03/04 08:35:27;;;;;;;8.15;2.22;;;7.20;84.50;;;;;;5076734;28;20036;-74
2023/03/04 08:37:53;;;;;;;3.08;1.20;;;7.20;84.50;;;;;;5053933;28;20062;-74
2023/03/04 08:40:18;;;;;;;7.65;2.13;;;7.30;84.50;;;;;;5070201;28;20040;-74
2023/03/04 08:42:44;;;;;;;8.25;1.75;;;7.30;84.50;;;;;;5085691;28;20032;-74
2023/03/04 08:45:10;;;;;;;8.93;1.73;;;7.30;84.30;;;;;;5070580;28;20024;-74
2023/03/04 08:47:36;;;;;;;11.20;1.80;;;7.30;84.20;;;;;;5087901;28;20957;-75
2023/03/04 08:50:04;;;;;;;8.60;1.50;;;7.30;84.10;;;;;;5087458;28;20097;-72
2023/03/04 08:52:30;;;;;;;9.05;1.38;;;7.40;84.00;;;;;;5087458;28;20036;-74
2023/03/04 08:54:57;;;;;;;8.57;1.70;;;7.40;84.00;;;;;;5096626;28;20028;-74
2023/03/04 08:57:22;;;;;;;9.57;2.22;;;7.40;83.90;;;;;;5087222;28;20035;-75
2023/03/04 08:59:48;;;;;;;7.53;1.58;;;7.50;83.90;;;;;;5087788;28;20032;-74
2023/03/04 09:02:14;;;;;;;11.07;2.45;;;7.60;84.00;;;;;;5052655;28;20044;-74
2023/03/04 09:04:40;;;;;;;12.40;1.75;;;7.50;83.80;;;;;;5088033;28;20039;-74
2023/03/04 09:07:06;;;;;;;7.35;1.63;;;7.60;83.50;;;;;;5070764;28;20126;-74
2023/03/04 09:09:32;;;;;;;9.02;2.45;;;7.60;83.10;;;;;;5071069;28;20040;-74
2023/03/04 09:11:57;;;;;;;8.85;1.90;;;7.60;82.80;;;;;;5069992;28;20040;-74
2023/03/04 09:14:23;;;;;;;8.57;2.60;;;7.70;82.50;;;;;;5087379;28;20062;-74
2023/03/04 09:16:49;;;;;;;20.02;3.22;;;7.70;82.10;;;;;;5070720;28;20047;-75
2023/03/04 09:19:14;;;;;;;11.77;2.60;;;7.70;81.70;;;;;;5070381;28;20050;-75
2023/03/04 09:21:40;;;;;;;11.02;2.10;;;7.70;81.30;;;;;;5070717;28;20067;-75
2023/03/04 09:24:06;;;;;;;12.80;2.60;;;7.80;80.90;;;;;;5087095;28;20043;-75
2023/03/04 09:26:32;;;;;;;11.82;2.50;;;7.80;80.30;;;;;;5053325;28;20132;-75
2023/03/04 09:29:00;;;;;;;9.65;1.90;;;7.80;80.10;;;;;;5087169;28;20040;-74
2023/03/04 09:31:27;;;;;;;11.15;2.30;;;7.80;79.90;;;;;;5087059;28;20071;-75
2023/03/04 09:33:55;;;;;;;13.00;2.88;;;7.80;79.50;;;;;;5070028;28;20073;-74
2023/03/04 09:36:21;;;;;;;10.40;2.00;;;7.80;79.10;;;;;;5086158;28;20050;-74
2023/03/04 09:38:47;;;;;;;10.00;2.35;;;7.90;79.00;;;;;;5081662;28;20042;-74
2023/03/04 09:41:22;;;;;;;13.90;3.17;;;7.80;78.50;;;;;;5086358;28;20040;-74
2023/03/04 09:43:49;;;;;;;15.00;2.25;;;7.90;78.40;;;;;;5086917;28;20032;-74
2023/03/04 09:46:33;;;;;;;14.05;2.35;;;7.90;78.60;;;;;;5070175;28;20483;-74
2023/03/04 09:48:59;;;;;;;9.70;2.10;;;7.90;78.30;;;;;;5086732;28;20032;-74
2023/03/04 09:51:43;;;;;;;12.73;1.70;;;7.90;78.00;;;;;;5069329;28;20388;-74
2023/03/04 09:54:17;;;;;;;9.65;2.70;;;8.00;77.40;;;;;;5069790;28;20483;-74
2023/03/04 09:56:43;;;;;;;13.88;2.92;;;8.00;77.20;;;;;;5069458;28;20097;-74
2023/03/04 09:59:28;;;;;;;17.20;3.63;;;8.00;76.20;;;;;;5086802;28;20044;-74
2023/03/04 10:02:00;;;;;;;13.93;3.17;;;8.00;76.30;;;;;;5068787;28;20059;-74
2023/03/04 10:04:39;;;;;;;10.20;2.47;;;8.00;76.10;;;;;;5069414;28;20039;-74
2023/03/04 10:07:14;;;;;;;14.32;2.67;;;8.10;75.50;;;;;;5068960;28;20220;-75
2023/03/04 10:09:56;;;;;;;12.05;2.42;;;8.00;74.90;;;;;;5085853;28;20096;-74
2023/03/04 10:12:25;;;;;;;11.15;1.98;;;8.10;74.30;;;;;;5069535;28;20088;-75
2023/03/04 10:15:37;;;;;;;11.45;2.22;;;8.10;74.40;;;;;;5085372;28;20036;-75
2023/03/04 10:18:54;;;;;;;13.30;2.50;;;8.10;74.50;;;;;;5026867;28;20464;-75
2023/03/04 10:21:23;;;;;;;15.95;2.63;;;8.10;72.60;;;;;;5010965;28;20118;-75
2023/03/04 10:23:49;;;;;;;11.20;3.28;;;8.20;73.70;;;;;;5072617;28;20054;-74
2023/03/04 10:26:19;;;;;;;18.05;3.25;;;8.10;73.60;;;;;;5075933;28;20032;-75
2023/03/04 10:28:46;;;;;;;16.08;3.70;;;8.10;73.30;;;;;;5071796;28;20032;-75
2023/03/04 10:31:26;;;;;;;12.10;2.65;;;8.10;72.10;;;;;;5071521;28;20572;-75
2023/03/04 10:33:52;;;;;;;11.90;2.38;;;8.10;71.50;;;;;;5088690;28;20051;-76
2023/03/04 10:36:21;;;;;;;11.85;2.80;;;8.10;71.10;;;;;;5105388;28;20048;-74
2023/03/04 10:38:46;;;;;;;11.52;2.45;;;8.10;69.80;;;;;;5112784;28;20055;-73
2023/03/04 10:41:12;;;;;;;11.65;2.60;;;8.10;69.30;;;;;;5091230;28;20040;-73
2023/03/04 10:43:38;;;;;;;11.35;2.72;;;8.10;69.30;;;;;;5075733;28;20040;-73
2023/03/04 10:46:04;;;;;;;10.18;2.13;;;8.10;68.80;;;;;;5091624;28;20040;-73
2023/03/04 10:48:31;;;;;;;12.35;3.03;;;8.20;69.70;;;;;;5091368;28;20028;-74
2023/03/04 10:51:18;;;;;;;11.95;2.53;;;8.20;69.40;;;;;;5091300;28;20090;-74
2023/03/04 10:53:45;;;;;;;10.55;2.15;;;8.20;69.30;;;;;;5090242;28;20074;-74
2023/03/04 10:56:30;;;;;;;11.18;2.83;;;8.20;70.20;;;;;;5091591;28;20040;-73
2023/03/04 10:59:24;;;;;;;13.23;2.92;;;8.30;69.50;;;;;;5074384;28;20040;-73
2023/03/04 11:01:52;;;;;;;6.07;1.30;;;8.30;69.60;;;;;;5072888;28;20056;-74
2023/03/04 11:04:18;;;;;;;8.38;2.00;;;8.30;69.60;;;;;;5072534;28;20039;-74
2023/03/04 11:06:44;;;;;;;9.73;1.77;;;8.30;69.60;;;;;;5111859;28;20129;-74
2023/03/04 11:09:30;;;;;;;9.55;2.13;;;8.40;68.50;;;;;;5111664;28;20035;-74
2023/03/04 11:12:00;;;;;;;5.45;1.55;;;8.40;68.30;;;;;;5092075;28;20063;-73
2023/03/04 11:14:29;;;;;;;7.88;2.30;;;8.40;68.20;;;;;;5082868;28;20055;-73
2023/03/04 11:17:25;;;;;;;10.00;1.90;;;8.50;68.30;;;;;;5091373;28;20125;-74
2023/03/04 11:20:13;;;;;;;6.22;1.35;;;8.50;68.10;;;;;;5089631;28;20164;-74
2023/03/04 11:22:40;;;;;;;6.40;1.40;;;8.60;68.20;;;;;;5099128;28;20048;-74
2023/03/04 11:25:14;;;;;;;5.65;1.40;;;8.60;68.60;;;;;;5111789;28;20491;-74
2023/03/04 11:27:47;;;;;;;5.90;1.73;;;8.60;68.10;;;;;;5094933;28;20448;-74
2023/03/04 11:30:28;;;;;;;4.78;1.00;;;8.60;68.40;;;;;;5094745;28;20436;-74
2023/03/04 11:33:03;;;;;;;6.95;0.90;;;8.60;68.70;;;;;;5087069;28;20402;-73
2023/03/04 11:35:42;;;;;;;7.00;1.48;;;8.70;69.20;;;;;;5093563;28;20573;-73
2023/03/04 11:38:21;;;;;;;5.22;1.40;;;8.60;69.40;;;;;;5077778;28;20116;-74
2023/03/04 11:40:59;;;;;;;8.43;1.30;;;8.60;69.80;;;;;;5082152;28;20039;-73
2023/03/04 11:43:29;;;;;;;8.32;1.70;;;8.60;69.90;;;;;;5096120;28;20390;-73
2023/03/04 11:46:38;;;;;;;10.63;1.70;;;8.60;70.10;;;;;;5094778;28;20497;-73
2023/03/04 11:49:29;;;;;;;11.18;1.83;;;8.50;70.60;;;;;;5077911;28;20040;-72
2023/03/04 11:52:21;;;;;;;12.07;1.83;;;8.50;71.20;;;;;;5094805;28;20040;-73
2023/03/04 11:55:10;;;;;;;10.25;1.98;;;8.50;71.20;;;;;;5077395;28;20044;-78
2023/03/04 11:57:48;;;;;;;13.05;2.63;;;8.50;71.40;;;;;;5074143;28;20062;-79
2023/03/04 12:00:23;;;;;;;9.57;2.20;;;8.60;71.10;;;;;;5077688;28;20131;-78
2023/03/04 12:03:06;;;;;;;10.73;2.53;;;8.60;70.50;;;;;;5074455;28;20052;-79
2023/03/04 12:05:46;;;;;;;8.40;2.58;;;8.60;70.40;;;;;;5108324;28;20036;-79
2023/03/04 12:08:15;;;;;;;7.10;1.90;;;8.70;70.40;;;;;;5109125;28;20052;-79
2023/03/04 12:10:54;;;;;;;18.20;2.58;;;8.70;69.60;;;;;;5077734;28;20044;-79
2023/03/04 12:13:27;;;;;;;6.68;1.67;;;8.80;68.90;;;;;;5094859;28;20065;-79
2023/03/04 12:15:55;;;;;;;15.13;2.55;;;8.80;68.40;;;;;;5083308;28;20136;-79
2023/03/04 12:18:37;;;;;;;9.48;1.90;;;8.80;68.00;;;;;;5115112;28;20062;-79
2023/03/04 12:21:20;;;;;;;10.75;1.88;;;8.90;66.10;;;;;;5114818;28;20126;-79
2023/03/04 12:24:11;;;;;;;13.93;2.92;;;8.90;65.40;;;;;;5096044;28;20043;-78
2023/03/04 12:26:46;;;;;;;13.02;2.78;;;9.00;64.40;;;;;;5077494;28;20040;-77
2023/03/04 12:29:21;;;;;;;14.15;2.30;;;9.00;65.40;;;;;;5094413;28;20395;-78
2023/03/04 12:31:53;;;;;;;10.05;2.80;;;9.00;64.60;;;;;;5094006;28;20044;-79
2023/03/04 12:34:45;;;;;;;11.75;2.50;;;9.00;64.80;;;;;;5094103;28;20085;-79
2023/03/04 12:37:36;;;;;;;10.82;2.75;;;9.10;64.00;;;;;;5076417;28;20048;-80
2023/03/04 12:40:04;;;;;;;10.40;2.50;;;9.10;63.80;;;;;;5094172;28;20047;-79
2023/03/04 12:43:05;;;;;;;9.65;2.55;;;9.20;63.50;;;;;;5094000;28;20055;-79
2023/03/04 12:45:39;;;;;;;13.77;3.03;;;9.20;63.00;;;;;;5094102;28;20493;-79
2023/03/04 12:48:39;;;;;;;8.68;2.35;;;9.20;63.40;;;;;;5093970;28;20047;-79
2023/03/04 12:51:08;;;;;;;10.77;2.35;;;9.30;63.10;;;;;;5076301;28;20089;-78
2023/03/04 12:53:49;;;;;;;13.05;2.28;;;9.30;63.40;;;;;;5093588;28;20044;-79
2023/03/04 12:56:42;;;;;;;15.40;3.92;;;9.30;64.10;;;;;;5076869;28;20051;-79
2023/03/04 12:59:15;;;;;;;13.18;3.00;;;9.30;64.70;;;;;;5076605;28;20504;-79
2023/03/04 13:01:47;;;;;;;11.45;2.63;;;9.20;65.20;;;;;;5101712;28;20184;-78
2023/03/04 13:04:57;;;;;;;12.88;2.38;;;9.20;65.40;;;;;;5097093;28;20035;-79